sensor_id;sensor_type;location;lat;lon;timestamp;P1;durP1;ratioP1;P2;durP2;ratioP2
43682;SDS011;29285;52.128;21.060;2023-07-02T00:00:56;22.90;;;19.10;;
43682;SDS011;29285;52.128;21.060;2023-07-02T00:06:18;24.10;;;17.80;;
43682;SDS011;29285;52.128;21.060;2023-07-02T00:11:19;22.00;;;17.60;;
43682;SDS011;29285;52.128;21.060;2023-07-02T00:16:20;21.70;;;18.80;;
43682;SDS011;29285;52.128;21.060;2023-07-02T00:21:21;20.40;;;17.40;;
43682;SDS011;29285;52.128;21.060;2023-07-02T00:26:24;23.40;;;18.00;;
43682;SDS011;29285;52.128;21.060;2023-07-02T00:31:26;20.70;;;18.10;;
43682;SDS011;29285;52.128;21.060;2023-07-02T00:36:28;21.50;;;19.10;;
43682;SDS011;29285;52.128;21.060;2023-07-02T00:41:30;28.80;;;19.00;;
43682;SDS011;29285;52.128;21.060;2023-07-02T00:46:31;22.30;;;18.40;;
43682;SDS011;29285;52.128;21.060;2023-07-02T00:51:32;21.60;;;18.60;;
43682;SDS011;29285;52.128;21.060;2023-07-02T00:56:34;19.90;;;16.60;;
43682;SDS011;29285;52.128;21.060;2023-07-02T01:01:35;22.20;;;18.80;;
43682;SDS011;29285;52.128;21.060;2023-07-02T01:06:38;21.70;;;18.10;;
43682;SDS011;29285;52.128;21.060;2023-07-02T01:11:43;25.40;;;19.30;;
43682;SDS011;29285;52.128;21.060;2023-07-02T01:16:52;22.60;;;18.50;;
43682;SDS011;29285;52.128;21.060;2023-07-02T01:21:54;20.80;;;18.30;;
43682;SDS011;29285;52.128;21.060;2023-07-02T01:26:56;19.60;;;17.40;;
43682;SDS011;29285;52.128;21.060;2023-07-02T01:32:00;24.10;;;19.80;;
43682;SDS011;29285;52.128;21.060;2023-07-02T01:37:02;24.30;;;19.80;;
43682;SDS011;29285;52.128;21.060;2023-07-02T01:42:11;22.60;;;20.20;;
43682;SDS011;29285;52.128;21.060;2023-07-02T01:47:17;25.70;;;18.00;;
43682;SDS011;29285;52.128;21.060;2023-07-02T01:52:20;24.20;;;19.60;;
43682;SDS011;29285;52.128;21.060;2023-07-02T01:57:21;22.50;;;20.10;;
43682;SDS011;29285;52.128;21.060;2023-07-02T02:29:26;20.10;;;18.00;;
43682;SDS011;29285;52.128;21.060;2023-07-02T02:34:28;22.80;;;19.50;;
43682;SDS011;29285;52.128;21.060;2023-07-02T02:39:30;21.70;;;18.30;;
43682;SDS011;29285;52.128;21.060;2023-07-02T02:44:31;22.10;;;18.20;;
43682;SDS011;29285;52.128;21.060;2023-07-02T02:49:33;23.40;;;17.10;;
43682;SDS011;29285;52.128;21.060;2023-07-02T02:54:34;19.50;;;17.50;;
43682;SDS011;29285;52.128;21.060;2023-07-02T02:59:35;19.40;;;17.30;;
43682;SDS011;29285;52.128;21.060;2023-07-02T03:04:36;18.90;;;15.20;;
43682;SDS011;29285;52.128;21.060;2023-07-02T03:09:40;17.00;;;15.00;;
43682;SDS011;29285;52.128;21.060;2023-07-02T03:14:42;22.70;;;19.00;;
43682;SDS011;29285;52.128;21.060;2023-07-02T03:19:43;21.80;;;19.50;;
43682;SDS011;29285;52.128;21.060;2023-07-02T03:24:44;18.50;;;16.40;;
43682;SDS011;29285;52.128;21.060;2023-07-02T03:29:45;20.80;;;15.70;;
43682;SDS011;29285;52.128;21.060;2023-07-02T03:34:46;19.50;;;16.80;;
43682;SDS011;29285;52.128;21.060;2023-07-02T03:39:47;19.10;;;16.80;;
43682;SDS011;29285;52.128;21.060;2023-07-02T03:44:48;17.70;;;15.70;;
43682;SDS011;29285;52.128;21.060;2023-07-02T03:49:49;15.80;;;13.80;;
43682;SDS011;29285;52.128;21.060;2023-07-02T03:54:51;17.10;;;14.70;;
43682;SDS011;29285;52.128;21.060;2023-07-02T03:59:53;21.20;;;16.50;;
43682;SDS011;29285;52.128;21.060;2023-07-02T04:04:54;18.20;;;14.90;;
43682;SDS011;29285;52.128;21.060;2023-07-02T04:09:55;19.20;;;15.60;;
43682;SDS011;29285;52.128;21.060;2023-07-02T04:14:57;17.50;;;15.00;;
43682;SDS011;29285;52.128;21.060;2023-07-02T04:19:59;19.50;;;16.00;;
43682;SDS011;29285;52.128;21.060;2023-07-02T04:25:02;18.30;;;14.50;;
43682;SDS011;29285;52.128;21.060;2023-07-02T04:30:03;17.90;;;14.40;;
43682;SDS011;29285;52.128;21.060;2023-07-02T04:35:07;15.50;;;13.90;;
43682;SDS011;29285;52.128;21.060;2023-07-02T04:40:08;16.70;;;14.60;;
43682;SDS011;29285;52.128;21.060;2023-07-02T04:45:10;15.60;;;13.90;;
43682;SDS011;29285;52.128;21.060;2023-07-02T04:50:13;15.10;;;11.90;;
43682;SDS011;29285;52.128;21.060;2023-07-02T04:55:14;16.70;;;13.90;;
43682;SDS011;29285;52.128;21.060;2023-07-02T05:00:16;15.40;;;12.80;;
43682;SDS011;29285;52.128;21.060;2023-07-02T05:05:17;13.40;;;12.00;;
43682;SDS011;29285;52.128;21.060;2023-07-02T05:10:18;13.80;;;10.40;;
43682;SDS011;29285;52.128;21.060;2023-07-02T05:15:20;17.60;;;12.50;;
43682;SDS011;29285;52.128;21.060;2023-07-02T05:20:21;13.70;;;12.20;;
43682;SDS011;29285;52.128;21.060;2023-07-02T05:25:22;13.90;;;12.40;;
43682;SDS011;29285;52.128;21.060;2023-07-02T05:30:23;13.30;;;11.60;;
43682;SDS011;29285;52.128;21.060;2023-07-02T05:35:24;13.40;;;12.00;;
43682;SDS011;29285;52.128;21.060;2023-07-02T05:40:26;12.30;;;11.00;;
43682;SDS011;29285;52.128;21.060;2023-07-02T05:45:27;12.50;;;11.10;;
43682;SDS011;29285;52.128;21.060;2023-07-02T05:50:29;12.40;;;11.10;;
43682;SDS011;29285;52.128;21.060;2023-07-02T05:55:30;14.80;;;10.90;;
43682;SDS011;29285;52.128;21.060;2023-07-02T06:00:32;11.80;;;10.20;;
43682;SDS011;29285;52.128;21.060;2023-07-02T06:05:33;10.00;;;9.00;;
43682;SDS011;29285;52.128;21.060;2023-07-02T06:10:34;10.40;;;9.30;;
43682;SDS011;29285;52.128;21.060;2023-07-02T06:15:35;12.00;;;10.60;;
43682;SDS011;29285;52.128;21.060;2023-07-02T06:20:36;16.90;;;11.60;;
43682;SDS011;29285;52.128;21.060;2023-07-02T06:25:37;12.60;;;11.00;;
43682;SDS011;29285;52.128;21.060;2023-07-02T06:30:38;13.70;;;10.10;;
43682;SDS011;29285;52.128;21.060;2023-07-02T06:35:39;10.50;;;9.10;;
43682;SDS011;29285;52.128;21.060;2023-07-02T06:40:39;12.90;;;10.40;;
43682;SDS011;29285;52.128;21.060;2023-07-02T06:45:41;12.30;;;9.20;;
43682;SDS011;29285;52.128;21.060;2023-07-02T06:50:43;12.10;;;8.70;;
43682;SDS011;29285;52.128;21.060;2023-07-02T06:55:47;7.80;;;7.00;;
43682;SDS011;29285;52.128;21.060;2023-07-02T07:00:48;10.70;;;7.80;;
43682;SDS011;29285;52.128;21.060;2023-07-02T07:05:49;10.30;;;8.50;;
43682;SDS011;29285;52.128;21.060;2023-07-02T07:10:50;7.80;;;7.10;;
43682;SDS011;29285;52.128;21.060;2023-07-02T07:15:51;11.30;;;7.70;;
43682;SDS011;29285;52.128;21.060;2023-07-02T07:20:52;18.90;;;7.80;;
43682;SDS011;29285;52.128;21.060;2023-07-02T07:25:53;8.80;;;7.20;;
43682;SDS011;29285;52.128;21.060;2023-07-02T07:30:54;7.70;;;6.50;;
43682;SDS011;29285;52.128;21.060;2023-07-02T07:35:55;7.90;;;6.50;;
43682;SDS011;29285;52.128;21.060;2023-07-02T07:40:57;8.50;;;6.20;;
43682;SDS011;29285;52.128;21.060;2023-07-02T07:45:58;8.30;;;6.20;;
43682;SDS011;29285;52.128;21.060;2023-07-02T07:51:00;5.90;;;5.30;;
43682;SDS011;29285;52.128;21.060;2023-07-02T07:56:01;7.40;;;5.60;;
43682;SDS011;29285;52.128;21.060;2023-07-02T08:01:02;6.70;;;5.20;;
43682;SDS011;29285;52.128;21.060;2023-07-02T08:06:03;7.30;;;5.40;;
43682;SDS011;29285;52.128;21.060;2023-07-02T08:11:04;5.90;;;5.40;;
43682;SDS011;29285;52.128;21.060;2023-07-02T08:16:05;9.30;;;4.90;;
43682;SDS011;29285;52.128;21.060;2023-07-02T08:21:06;5.00;;;4.40;;
43682;SDS011;29285;52.128;21.060;2023-07-02T08:26:07;4.80;;;4.30;;
43682;SDS011;29285;52.128;21.060;2023-07-02T08:31:08;4.90;;;4.50;;
43682;SDS011;29285;52.128;21.060;2023-07-02T08:36:09;4.90;;;4.40;;
43682;SDS011;29285;52.128;21.060;2023-07-02T08:41:11;8.10;;;5.00;;
43682;SDS011;29285;52.128;21.060;2023-07-02T08:46:12;7.60;;;5.20;;
43682;SDS011;29285;52.128;21.060;2023-07-02T08:51:15;5.00;;;4.30;;
43682;SDS011;29285;52.128;21.060;2023-07-02T08:56:17;4.00;;;3.60;;
43682;SDS011;29285;52.128;21.060;2023-07-02T09:01:18;3.50;;;3.20;;
43682;SDS011;29285;52.128;21.060;2023-07-02T09:06:20;7.90;;;4.20;;
43682;SDS011;29285;52.128;21.060;2023-07-02T09:11:21;4.00;;;3.50;;
43682;SDS011;29285;52.128;21.060;2023-07-02T09:16:31;5.50;;;3.80;;
43682;SDS011;29285;52.128;21.060;2023-07-02T09:26:49;3.90;;;3.40;;
43682;SDS011;29285;52.128;21.060;2023-07-02T09:31:52;3.60;;;3.20;;
43682;SDS011;29285;52.128;21.060;2023-07-02T09:36:53;4.40;;;3.70;;
43682;SDS011;29285;52.128;21.060;2023-07-02T09:41:58;5.10;;;3.90;;
43682;SDS011;29285;52.128;21.060;2023-07-02T09:47:04;4.50;;;4.10;;
43682;SDS011;29285;52.128;21.060;2023-07-02T09:52:11;6.40;;;3.80;;
43682;SDS011;29285;52.128;21.060;2023-07-02T09:57:12;3.30;;;3.00;;
43682;SDS011;29285;52.128;21.060;2023-07-02T10:02:13;3.70;;;3.40;;
43682;SDS011;29285;52.128;21.060;2023-07-02T10:07:25;3.50;;;3.10;;
43682;SDS011;29285;52.128;21.060;2023-07-02T10:12:30;3.30;;;3.10;;
43682;SDS011;29285;52.128;21.060;2023-07-02T10:17:32;3.90;;;3.30;;
43682;SDS011;29285;52.128;21.060;2023-07-02T10:22:42;3.10;;;2.80;;
43682;SDS011;29285;52.128;21.060;2023-07-02T10:27:44;4.40;;;3.10;;
43682;SDS011;29285;52.128;21.060;2023-07-02T10:32:45;2.90;;;2.70;;
43682;SDS011;29285;52.128;21.060;2023-07-02T10:37:47;2.90;;;2.70;;
43682;SDS011;29285;52.128;21.060;2023-07-02T10:42:48;2.90;;;2.60;;
43682;SDS011;29285;52.128;21.060;2023-07-02T10:47:52;4.60;;;2.60;;
43682;SDS011;29285;52.128;21.060;2023-07-02T10:52:53;5.50;;;2.80;;
43682;SDS011;29285;52.128;21.060;2023-07-02T10:58:04;2.80;;;2.60;;
43682;SDS011;29285;52.128;21.060;2023-07-02T11:03:19;3.60;;;2.30;;
43682;SDS011;29285;52.128;21.060;2023-07-02T11:08:21;2.30;;;2.10;;
43682;SDS011;29285;52.128;21.060;2023-07-02T11:18:29;3.60;;;2.80;;
43682;SDS011;29285;52.128;21.060;2023-07-02T11:23:34;2.80;;;2.50;;
43682;SDS011;29285;52.128;21.060;2023-07-02T11:28:35;2.50;;;2.30;;
43682;SDS011;29285;52.128;21.060;2023-07-02T11:33:37;2.50;;;2.20;;
43682;SDS011;29285;52.128;21.060;2023-07-02T11:38:39;2.70;;;2.50;;
43682;SDS011;29285;52.128;21.060;2023-07-02T11:43:40;3.20;;;2.30;;
43682;SDS011;29285;52.128;21.060;2023-07-02T11:48:41;3.60;;;2.20;;
43682;SDS011;29285;52.128;21.060;2023-07-02T11:53:42;2.40;;;2.20;;
43682;SDS011;29285;52.128;21.060;2023-07-02T11:58:44;2.30;;;2.20;;
43682;SDS011;29285;52.128;21.060;2023-07-02T12:03:45;2.60;;;2.10;;
43682;SDS011;29285;52.128;21.060;2023-07-02T12:08:46;2.60;;;2.30;;
43682;SDS011;29285;52.128;21.060;2023-07-02T12:13:47;2.80;;;2.60;;
43682;SDS011;29285;52.128;21.060;2023-07-02T12:18:48;2.60;;;2.40;;
43682;SDS011;29285;52.128;21.060;2023-07-02T12:23:49;3.40;;;2.70;;
43682;SDS011;29285;52.128;21.060;2023-07-02T12:28:50;2.20;;;2.10;;
43682;SDS011;29285;52.128;21.060;2023-07-02T12:33:51;3.40;;;2.50;;
43682;SDS011;29285;52.128;21.060;2023-07-02T12:38:52;2.40;;;2.20;;
43682;SDS011;29285;52.128;21.060;2023-07-02T12:43:53;4.10;;;2.20;;
43682;SDS011;29285;52.128;21.060;2023-07-02T12:48:54;3.00;;;2.30;;
43682;SDS011;29285;52.128;21.060;2023-07-02T12:53:55;3.60;;;2.20;;
43682;SDS011;29285;52.128;21.060;2023-07-02T12:58:56;4.70;;;2.10;;
43682;SDS011;29285;52.128;21.060;2023-07-02T13:03:57;2.50;;;1.80;;
43682;SDS011;29285;52.128;21.060;2023-07-02T13:09:02;3.90;;;1.90;;
43682;SDS011;29285;52.128;21.060;2023-07-02T13:14:03;4.20;;;2.50;;
43682;SDS011;29285;52.128;21.060;2023-07-02T13:19:04;7.30;;;1.90;;
43682;SDS011;29285;52.128;21.060;2023-07-02T13:24:05;3.30;;;1.40;;
43682;SDS011;29285;52.128;21.060;2023-07-02T13:29:07;2.10;;;1.60;;
43682;SDS011;29285;52.128;21.060;2023-07-02T13:34:08;2.90;;;1.50;;
43682;SDS011;29285;52.128;21.060;2023-07-02T13:39:09;3.10;;;1.60;;
43682;SDS011;29285;52.128;21.060;2023-07-02T13:44:10;2.00;;;1.70;;
43682;SDS011;29285;52.128;21.060;2023-07-02T13:49:11;6.10;;;1.60;;
43682;SDS011;29285;52.128;21.060;2023-07-02T13:54:12;1.50;;;1.40;;
43682;SDS011;29285;52.128;21.060;2023-07-02T14:04:17;3.10;;;1.80;;
43682;SDS011;29285;52.128;21.060;2023-07-02T14:09:19;1.90;;;1.80;;
43682;SDS011;29285;52.128;21.060;2023-07-02T14:14:20;3.80;;;1.80;;
43682;SDS011;29285;52.128;21.060;2023-07-02T14:19:21;2.70;;;1.90;;
43682;SDS011;29285;52.128;21.060;2023-07-02T14:24:22;1.70;;;1.60;;
43682;SDS011;29285;52.128;21.060;2023-07-02T14:29:24;3.80;;;1.70;;
43682;SDS011;29285;52.128;21.060;2023-07-02T14:34:25;2.50;;;1.90;;
43682;SDS011;29285;52.128;21.060;2023-07-02T14:39:25;3.40;;;2.00;;
43682;SDS011;29285;52.128;21.060;2023-07-02T14:44:26;2.80;;;1.40;;
43682;SDS011;29285;52.128;21.060;2023-07-02T14:49:27;3.20;;;2.00;;
43682;SDS011;29285;52.128;21.060;2023-07-02T14:54:29;4.30;;;1.70;;
43682;SDS011;29285;52.128;21.060;2023-07-02T14:59:30;2.10;;;1.50;;
43682;SDS011;29285;52.128;21.060;2023-07-02T15:04:31;2.00;;;1.60;;
43682;SDS011;29285;52.128;21.060;2023-07-02T15:09:32;5.50;;;1.90;;
43682;SDS011;29285;52.128;21.060;2023-07-02T15:14:33;1.80;;;1.60;;
43682;SDS011;29285;52.128;21.060;2023-07-02T15:19:34;3.70;;;1.90;;
43682;SDS011;29285;52.128;21.060;2023-07-02T15:24:35;4.30;;;1.60;;
43682;SDS011;29285;52.128;21.060;2023-07-02T15:29:36;2.60;;;1.90;;
43682;SDS011;29285;52.128;21.060;2023-07-02T15:34:38;3.80;;;1.80;;
43682;SDS011;29285;52.128;21.060;2023-07-02T15:39:39;2.00;;;1.30;;
43682;SDS011;29285;52.128;21.060;2023-07-02T15:44:40;3.40;;;1.60;;
43682;SDS011;29285;52.128;21.060;2023-07-02T15:49:41;2.60;;;1.90;;
43682;SDS011;29285;52.128;21.060;2023-07-02T15:54:42;1.90;;;1.40;;
43682;SDS011;29285;52.128;21.060;2023-07-02T15:59:43;2.30;;;1.90;;
43682;SDS011;29285;52.128;21.060;2023-07-02T16:04:44;2.50;;;1.60;;
43682;SDS011;29285;52.128;21.060;2023-07-02T16:09:47;3.30;;;1.80;;
43682;SDS011;29285;52.128;21.060;2023-07-02T16:14:48;7.80;;;1.90;;
43682;SDS011;29285;52.128;21.060;2023-07-02T16:19:49;2.50;;;1.70;;
43682;SDS011;29285;52.128;21.060;2023-07-02T16:24:50;5.10;;;2.00;;
43682;SDS011;29285;52.128;21.060;2023-07-02T16:29:50;4.30;;;1.90;;
43682;SDS011;29285;52.128;21.060;2023-07-02T16:34:51;1.60;;;1.50;;
43682;SDS011;29285;52.128;21.060;2023-07-02T16:39:52;2.50;;;2.00;;
43682;SDS011;29285;52.128;21.060;2023-07-02T16:44:54;5.00;;;1.90;;
43682;SDS011;29285;52.128;21.060;2023-07-02T16:49:58;3.30;;;1.90;;
43682;SDS011;29285;52.128;21.060;2023-07-02T16:55:00;4.40;;;2.00;;
43682;SDS011;29285;52.128;21.060;2023-07-02T17:00:01;2.50;;;1.80;;
43682;SDS011;29285;52.128;21.060;2023-07-02T17:05:03;4.50;;;2.30;;
43682;SDS011;29285;52.128;21.060;2023-07-02T17:10:05;2.70;;;2.00;;
43682;SDS011;29285;52.128;21.060;2023-07-02T17:15:06;2.60;;;2.00;;
43682;SDS011;29285;52.128;21.060;2023-07-02T17:20:08;2.30;;;2.00;;
43682;SDS011;29285;52.128;21.060;2023-07-02T17:25:10;1.70;;;1.60;;
43682;SDS011;29285;52.128;21.060;2023-07-02T17:30:11;2.30;;;2.10;;
43682;SDS011;29285;52.128;21.060;2023-07-02T17:35:14;4.40;;;2.00;;
43682;SDS011;29285;52.128;21.060;2023-07-02T17:40:15;2.50;;;2.00;;
43682;SDS011;29285;52.128;21.060;2023-07-02T17:45:16;13.40;;;2.20;;
43682;SDS011;29285;52.128;21.060;2023-07-02T17:50:18;4.90;;;2.50;;
43682;SDS011;29285;52.128;21.060;2023-07-02T17:55:19;6.50;;;2.10;;
43682;SDS011;29285;52.128;21.060;2023-07-02T18:00:20;4.30;;;1.90;;
43682;SDS011;29285;52.128;21.060;2023-07-02T18:05:21;3.40;;;1.80;;
43682;SDS011;29285;52.128;21.060;2023-07-02T18:10:22;2.10;;;1.90;;
43682;SDS011;29285;52.128;21.060;2023-07-02T18:15:23;3.70;;;2.50;;
43682;SDS011;29285;52.128;21.060;2023-07-02T18:20:24;4.00;;;1.80;;
43682;SDS011;29285;52.128;21.060;2023-07-02T18:25:25;2.20;;;2.00;;
43682;SDS011;29285;52.128;21.060;2023-07-02T18:30:26;4.30;;;2.20;;
43682;SDS011;29285;52.128;21.060;2023-07-02T18:35:28;5.40;;;2.50;;
43682;SDS011;29285;52.128;21.060;2023-07-02T18:40:34;2.30;;;2.10;;
43682;SDS011;29285;52.128;21.060;2023-07-02T18:45:39;5.00;;;2.00;;
43682;SDS011;29285;52.128;21.060;2023-07-02T18:55:41;3.90;;;2.70;;
43682;SDS011;29285;52.128;21.060;2023-07-02T19:00:42;2.20;;;1.80;;
43682;SDS011;29285;52.128;21.060;2023-07-02T19:05:47;3.20;;;2.00;;
43682;SDS011;29285;52.128;21.060;2023-07-02T19:10:57;3.40;;;2.40;;
43682;SDS011;29285;52.128;21.060;2023-07-02T19:16:00;3.00;;;2.40;;
43682;SDS011;29285;52.128;21.060;2023-07-02T19:21:02;3.70;;;2.20;;
43682;SDS011;29285;52.128;21.060;2023-07-02T19:26:03;4.90;;;2.50;;
43682;SDS011;29285;52.128;21.060;2023-07-02T19:31:04;4.40;;;2.80;;
43682;SDS011;29285;52.128;21.060;2023-07-02T19:36:06;4.60;;;2.60;;
43682;SDS011;29285;52.128;21.060;2023-07-02T19:41:07;3.90;;;2.60;;
43682;SDS011;29285;52.128;21.060;2023-07-02T19:46:08;4.10;;;2.60;;
43682;SDS011;29285;52.128;21.060;2023-07-02T19:51:09;3.90;;;2.60;;
43682;SDS011;29285;52.128;21.060;2023-07-02T19:56:10;4.90;;;2.80;;
43682;SDS011;29285;52.128;21.060;2023-07-02T20:01:13;5.90;;;2.70;;
43682;SDS011;29285;52.128;21.060;2023-07-02T20:06:14;4.20;;;2.70;;
43682;SDS011;29285;52.128;21.060;2023-07-02T20:11:15;3.70;;;2.90;;
43682;SDS011;29285;52.128;21.060;2023-07-02T20:16:16;3.80;;;3.30;;
43682;SDS011;29285;52.128;21.060;2023-07-02T20:21:19;5.30;;;3.00;;
43682;SDS011;29285;52.128;21.060;2023-07-02T20:26:20;3.10;;;2.80;;
43682;SDS011;29285;52.128;21.060;2023-07-02T20:31:21;7.40;;;2.90;;
43682;SDS011;29285;52.128;21.060;2023-07-02T20:36:22;7.60;;;3.40;;
43682;SDS011;29285;52.128;21.060;2023-07-02T20:41:23;8.40;;;3.40;;
43682;SDS011;29285;52.128;21.060;2023-07-02T20:46:28;5.30;;;3.30;;
43682;SDS011;29285;52.128;21.060;2023-07-02T20:51:30;6.80;;;3.10;;
43682;SDS011;29285;52.128;21.060;2023-07-02T20:56:32;5.10;;;3.20;;
43682;SDS011;29285;52.128;21.060;2023-07-02T21:01:33;8.30;;;3.40;;
43682;SDS011;29285;52.128;21.060;2023-07-02T21:06:35;7.50;;;3.50;;
43682;SDS011;29285;52.128;21.060;2023-07-02T21:11:38;5.50;;;3.50;;
43682;SDS011;29285;52.128;21.060;2023-07-02T21:16:39;5.50;;;3.80;;
43682;SDS011;29285;52.128;21.060;2023-07-02T21:21:40;5.00;;;3.40;;
43682;SDS011;29285;52.128;21.060;2023-07-02T21:26:43;6.40;;;3.60;;
43682;SDS011;29285;52.128;21.060;2023-07-02T21:31:44;8.10;;;3.40;;
43682;SDS011;29285;52.128;21.060;2023-07-02T21:36:45;4.80;;;3.30;;
43682;SDS011;29285;52.128;21.060;2023-07-02T21:41:47;5.70;;;3.70;;
43682;SDS011;29285;52.128;21.060;2023-07-02T21:46:48;5.00;;;3.20;;
43682;SDS011;29285;52.128;21.060;2023-07-02T21:51:49;7.50;;;3.70;;
43682;SDS011;29285;52.128;21.060;2023-07-02T21:56:50;7.40;;;3.70;;
43682;SDS011;29285;52.128;21.060;2023-07-02T22:01:51;4.30;;;3.90;;
43682;SDS011;29285;52.128;21.060;2023-07-02T22:06:52;7.40;;;4.30;;
43682;SDS011;29285;52.128;21.060;2023-07-02T22:11:53;8.40;;;4.10;;
43682;SDS011;29285;52.128;21.060;2023-07-02T22:16:54;5.50;;;4.30;;
43682;SDS011;29285;52.128;21.060;2023-07-02T22:22:06;5.90;;;3.40;;
43682;SDS011;29285;52.128;21.060;2023-07-02T22:27:08;15.70;;;4.50;;
43682;SDS011;29285;52.128;21.060;2023-07-02T22:32:09;6.50;;;4.20;;
43682;SDS011;29285;52.128;21.060;2023-07-02T22:37:10;7.10;;;4.00;;
43682;SDS011;29285;52.128;21.060;2023-07-02T22:42:11;4.70;;;3.90;;
43682;SDS011;29285;52.128;21.060;2023-07-02T22:47:12;5.80;;;4.10;;
43682;SDS011;29285;52.128;21.060;2023-07-02T22:52:13;4.40;;;3.80;;
43682;SDS011;29285;52.128;21.060;2023-07-02T22:57:14;6.60;;;3.70;;
43682;SDS011;29285;52.128;21.060;2023-07-02T23:02:15;6.70;;;4.70;;
43682;SDS011;29285;52.128;21.060;2023-07-02T23:07:16;5.00;;;4.50;;
43682;SDS011;29285;52.128;21.060;2023-07-02T23:12:17;6.00;;;5.00;;
43682;SDS011;29285;52.128;21.060;2023-07-02T23:17:18;6.20;;;5.30;;
43682;SDS011;29285;52.128;21.060;2023-07-02T23:22:24;6.10;;;4.50;;
43682;SDS011;29285;52.128;21.060;2023-07-02T23:27:25;9.20;;;4.60;;
43682;SDS011;29285;52.128;21.060;2023-07-02T23:32:26;6.60;;;4.70;;
43682;SDS011;29285;52.128;21.060;2023-07-02T23:37:27;15.20;;;5.20;;
43682;SDS011;29285;52.128;21.060;2023-07-02T23:42:28;8.10;;;4.90;;
43682;SDS011;29285;52.128;21.060;2023-07-02T23:47:30;8.40;;;4.60;;
43682;SDS011;29285;52.128;21.060;2023-07-02T23:52:31;4.70;;;4.10;;
43682;SDS011;29285;52.128;21.060;2023-07-02T23:57:32;6.90;;;5.00;;
